sensor_id;sensor_type;location;lat;lon;timestamp;P1;durP1;ratioP1;P2;durP2;ratioP2
75655;SDS011;64252;51.094;13.714;2024-03-02T00:00:20;56.92;;;29.77;;
75655;SDS011;64252;51.094;13.714;2024-03-02T00:02:47;49.00;;;26.52;;
75655;SDS011;64252;51.094;13.714;2024-03-02T00:05:14;56.83;;;29.13;;
75655;SDS011;64252;51.094;13.714;2024-03-02T00:07:42;51.28;;;28.38;;
75655;SDS011;64252;51.094;13.714;2024-03-02T00:10:09;55.78;;;28.75;;
75655;SDS011;64252;51.094;13.714;2024-03-02T00:12:36;48.85;;;26.08;;
75655;SDS011;64252;51.094;13.714;2024-03-02T00:15:04;56.10;;;28.13;;
75655;SDS011;64252;51.094;13.714;2024-03-02T00:17:32;47.30;;;25.70;;
75655;SDS011;64252;51.094;13.714;2024-03-02T00:19:57;53.00;;;27.67;;
75655;SDS011;64252;51.094;13.714;2024-03-02T00:22:23;51.45;;;25.63;;
75655;SDS011;64252;51.094;13.714;2024-03-02T00:24:48;59.45;;;31.58;;
75655;SDS011;64252;51.094;13.714;2024-03-02T00:27:14;48.80;;;26.23;;
75655;SDS011;64252;51.094;13.714;2024-03-02T00:29:43;54.17;;;28.77;;
75655;SDS011;64252;51.094;13.714;2024-03-02T00:32:12;64.47;;;30.67;;
75655;SDS011;64252;51.094;13.714;2024-03-02T00:34:38;57.60;;;30.15;;
75655;SDS011;64252;51.094;13.714;2024-03-02T00:37:04;51.67;;;27.50;;
75655;SDS011;64252;51.094;13.714;2024-03-02T00:39:30;58.97;;;29.20;;
75655;SDS011;64252;51.094;13.714;2024-03-02T00:41:55;59.33;;;31.13;;
75655;SDS011;64252;51.094;13.714;2024-03-02T00:44:21;55.92;;;29.50;;
75655;SDS011;64252;51.094;13.714;2024-03-02T00:46:51;40.63;;;23.20;;
75655;SDS011;64252;51.094;13.714;2024-03-02T00:49:24;47.92;;;24.83;;
75655;SDS011;64252;51.094;13.714;2024-03-02T00:51:53;48.78;;;25.77;;
75655;SDS011;64252;51.094;13.714;2024-03-02T00:54:20;48.42;;;27.65;;
75655;SDS011;64252;51.094;13.714;2024-03-02T00:56:48;49.08;;;26.90;;
75655;SDS011;64252;51.094;13.714;2024-03-02T00:59:14;44.88;;;24.48;;
75655;SDS011;64252;51.094;13.714;2024-03-02T01:01:40;41.45;;;24.75;;
75655;SDS011;64252;51.094;13.714;2024-03-02T01:04:05;60.80;;;29.35;;
75655;SDS011;64252;51.094;13.714;2024-03-02T01:06:31;63.80;;;30.40;;
75655;SDS011;64252;51.094;13.714;2024-03-02T01:08:56;53.90;;;29.27;;
75655;SDS011;64252;51.094;13.714;2024-03-02T01:11:22;43.80;;;23.73;;
75655;SDS011;64252;51.094;13.714;2024-03-02T01:13:47;50.10;;;27.63;;
75655;SDS011;64252;51.094;13.714;2024-03-02T01:16:13;51.25;;;28.08;;
75655;SDS011;64252;51.094;13.714;2024-03-02T01:18:40;49.58;;;26.60;;
75655;SDS011;64252;51.094;13.714;2024-03-02T01:21:06;47.35;;;26.67;;
75655;SDS011;64252;51.094;13.714;2024-03-02T01:23:33;50.20;;;27.65;;
75655;SDS011;64252;51.094;13.714;2024-03-02T01:25:58;47.22;;;25.42;;
75655;SDS011;64252;51.094;13.714;2024-03-02T01:28:24;48.15;;;26.85;;
75655;SDS011;64252;51.094;13.714;2024-03-02T01:30:49;52.95;;;27.85;;
75655;SDS011;64252;51.094;13.714;2024-03-02T01:33:16;63.05;;;29.52;;
75655;SDS011;64252;51.094;13.714;2024-03-02T01:35:42;53.72;;;25.92;;
75655;SDS011;64252;51.094;13.714;2024-03-02T01:38:07;56.10;;;28.88;;
75655;SDS011;64252;51.094;13.714;2024-03-02T01:40:34;60.30;;;28.23;;
75655;SDS011;64252;51.094;13.714;2024-03-02T01:43:00;51.17;;;25.83;;
75655;SDS011;64252;51.094;13.714;2024-03-02T01:45:26;50.05;;;26.95;;
75655;SDS011;64252;51.094;13.714;2024-03-02T01:47:51;56.05;;;30.88;;
75655;SDS011;64252;51.094;13.714;2024-03-02T01:50:27;49.63;;;27.00;;
75655;SDS011;64252;51.094;13.714;2024-03-02T01:52:54;46.88;;;23.58;;
75655;SDS011;64252;51.094;13.714;2024-03-02T01:55:21;61.15;;;31.90;;
75655;SDS011;64252;51.094;13.714;2024-03-02T01:57:47;52.50;;;28.00;;
75655;SDS011;64252;51.094;13.714;2024-03-02T02:00:14;49.95;;;25.45;;
75655;SDS011;64252;51.094;13.714;2024-03-02T02:02:40;41.60;;;21.42;;
75655;SDS011;64252;51.094;13.714;2024-03-02T02:05:06;50.85;;;28.10;;
75655;SDS011;64252;51.094;13.714;2024-03-02T02:07:32;49.60;;;25.70;;
75655;SDS011;64252;51.094;13.714;2024-03-02T02:09:59;50.83;;;28.98;;
75655;SDS011;64252;51.094;13.714;2024-03-02T02:12:24;48.20;;;26.67;;
75655;SDS011;64252;51.094;13.714;2024-03-02T02:14:50;47.58;;;25.70;;
75655;SDS011;64252;51.094;13.714;2024-03-02T02:17:16;49.60;;;27.67;;
75655;SDS011;64252;51.094;13.714;2024-03-02T02:19:41;50.40;;;26.50;;
75655;SDS011;64252;51.094;13.714;2024-03-02T02:22:08;41.70;;;24.50;;
75655;SDS011;64252;51.094;13.714;2024-03-02T02:24:34;55.88;;;29.23;;
75655;SDS011;64252;51.094;13.714;2024-03-02T02:27:00;39.13;;;22.48;;
75655;SDS011;64252;51.094;13.714;2024-03-02T02:29:25;48.78;;;25.80;;
75655;SDS011;64252;51.094;13.714;2024-03-02T02:31:51;50.42;;;27.15;;
75655;SDS011;64252;51.094;13.714;2024-03-02T02:34:16;54.10;;;27.63;;
75655;SDS011;64252;51.094;13.714;2024-03-02T02:36:42;39.47;;;20.83;;
75655;SDS011;64252;51.094;13.714;2024-03-02T02:39:09;41.03;;;22.00;;
75655;SDS011;64252;51.094;13.714;2024-03-02T02:44:03;43.40;;;23.75;;
75655;SDS011;64252;51.094;13.714;2024-03-02T02:46:29;57.97;;;29.77;;
75655;SDS011;64252;51.094;13.714;2024-03-02T02:48:55;51.55;;;26.88;;
75655;SDS011;64252;51.094;13.714;2024-03-02T02:51:20;54.08;;;28.75;;
75655;SDS011;64252;51.094;13.714;2024-03-02T02:53:46;50.47;;;27.45;;
75655;SDS011;64252;51.094;13.714;2024-03-02T02:56:11;49.65;;;26.52;;
75655;SDS011;64252;51.094;13.714;2024-03-02T02:58:39;44.28;;;26.05;;
75655;SDS011;64252;51.094;13.714;2024-03-02T03:01:06;47.85;;;26.80;;
75655;SDS011;64252;51.094;13.714;2024-03-02T03:03:31;47.50;;;25.48;;
75655;SDS011;64252;51.094;13.714;2024-03-02T03:05:57;48.72;;;27.92;;
75655;SDS011;64252;51.094;13.714;2024-03-02T03:08:22;50.22;;;28.58;;
75655;SDS011;64252;51.094;13.714;2024-03-02T03:10:48;48.05;;;25.42;;
75655;SDS011;64252;51.094;13.714;2024-03-02T03:13:14;53.58;;;28.15;;
75655;SDS011;64252;51.094;13.714;2024-03-02T03:15:40;50.40;;;27.40;;
75655;SDS011;64252;51.094;13.714;2024-03-02T03:18:06;50.15;;;27.85;;
75655;SDS011;64252;51.094;13.714;2024-03-02T03:20:33;47.15;;;26.50;;
75655;SDS011;64252;51.094;13.714;2024-03-02T03:22:59;43.13;;;24.73;;
75655;SDS011;64252;51.094;13.714;2024-03-02T03:25:25;52.58;;;29.52;;
75655;SDS011;64252;51.094;13.714;2024-03-02T03:27:50;45.67;;;25.67;;
75655;SDS011;64252;51.094;13.714;2024-03-02T03:30:18;39.42;;;22.45;;
75655;SDS011;64252;51.094;13.714;2024-03-02T03:32:44;52.95;;;28.38;;
75655;SDS011;64252;51.094;13.714;2024-03-02T03:35:10;43.42;;;23.80;;
75655;SDS011;64252;51.094;13.714;2024-03-02T03:37:37;47.28;;;23.95;;
75655;SDS011;64252;51.094;13.714;2024-03-02T03:40:03;52.42;;;27.98;;
75655;SDS011;64252;51.094;13.714;2024-03-02T03:42:37;46.15;;;26.50;;
75655;SDS011;64252;51.094;13.714;2024-03-02T03:45:03;53.08;;;28.05;;
75655;SDS011;64252;51.094;13.714;2024-03-02T03:47:32;51.42;;;26.33;;
75655;SDS011;64252;51.094;13.714;2024-03-02T03:49:58;52.63;;;26.95;;
75655;SDS011;64252;51.094;13.714;2024-03-02T03:52:23;47.72;;;26.98;;
75655;SDS011;64252;51.094;13.714;2024-03-02T03:54:49;52.88;;;28.92;;
75655;SDS011;64252;51.094;13.714;2024-03-02T03:57:15;54.47;;;30.15;;
75655;SDS011;64252;51.094;13.714;2024-03-02T03:59:41;52.75;;;28.80;;
75655;SDS011;64252;51.094;13.714;2024-03-02T04:02:06;54.10;;;28.17;;
75655;SDS011;64252;51.094;13.714;2024-03-02T04:04:33;43.22;;;23.60;;
75655;SDS011;64252;51.094;13.714;2024-03-02T04:06:58;51.78;;;27.77;;
75655;SDS011;64252;51.094;13.714;2024-03-02T04:09:24;56.90;;;28.90;;
75655;SDS011;64252;51.094;13.714;2024-03-02T04:11:50;51.42;;;28.65;;
75655;SDS011;64252;51.094;13.714;2024-03-02T04:14:16;55.92;;;27.85;;
75655;SDS011;64252;51.094;13.714;2024-03-02T04:16:42;48.63;;;25.92;;
75655;SDS011;64252;51.094;13.714;2024-03-02T04:19:07;51.65;;;28.75;;
75655;SDS011;64252;51.094;13.714;2024-03-02T04:21:33;50.70;;;25.98;;
75655;SDS011;64252;51.094;13.714;2024-03-02T04:23:58;48.25;;;24.55;;
75655;SDS011;64252;51.094;13.714;2024-03-02T04:26:27;48.78;;;25.20;;
75655;SDS011;64252;51.094;13.714;2024-03-02T04:28:52;50.28;;;26.55;;
75655;SDS011;64252;51.094;13.714;2024-03-02T04:31:19;54.25;;;29.42;;
75655;SDS011;64252;51.094;13.714;2024-03-02T04:33:45;50.40;;;27.67;;
75655;SDS011;64252;51.094;13.714;2024-03-02T04:36:11;49.35;;;26.83;;
75655;SDS011;64252;51.094;13.714;2024-03-02T04:38:37;50.17;;;27.40;;
75655;SDS011;64252;51.094;13.714;2024-03-02T04:41:03;49.40;;;26.88;;
75655;SDS011;64252;51.094;13.714;2024-03-02T04:43:29;52.25;;;28.65;;
75655;SDS011;64252;51.094;13.714;2024-03-02T04:45:57;45.15;;;24.25;;
75655;SDS011;64252;51.094;13.714;2024-03-02T04:48:23;46.40;;;25.25;;
75655;SDS011;64252;51.094;13.714;2024-03-02T04:50:49;54.38;;;29.42;;
75655;SDS011;64252;51.094;13.714;2024-03-02T04:53:14;45.55;;;23.80;;
75655;SDS011;64252;51.094;13.714;2024-03-02T04:55:40;46.97;;;26.55;;
75655;SDS011;64252;51.094;13.714;2024-03-02T04:58:05;52.95;;;26.65;;
75655;SDS011;64252;51.094;13.714;2024-03-02T05:00:32;49.67;;;26.40;;
75655;SDS011;64252;51.094;13.714;2024-03-02T05:03:00;44.92;;;25.25;;
75655;SDS011;64252;51.094;13.714;2024-03-02T05:05:26;40.90;;;21.95;;
75655;SDS011;64252;51.094;13.714;2024-03-02T05:07:52;55.67;;;27.65;;
75655;SDS011;64252;51.094;13.714;2024-03-02T05:10:18;45.47;;;24.70;;
75655;SDS011;64252;51.094;13.714;2024-03-02T05:12:44;48.25;;;26.15;;
75655;SDS011;64252;51.094;13.714;2024-03-02T05:15:10;43.17;;;23.77;;
75655;SDS011;64252;51.094;13.714;2024-03-02T05:17:37;58.47;;;27.65;;
75655;SDS011;64252;51.094;13.714;2024-03-02T05:20:04;48.03;;;26.50;;
75655;SDS011;64252;51.094;13.714;2024-03-02T05:22:31;46.40;;;25.20;;
75655;SDS011;64252;51.094;13.714;2024-03-02T05:24:56;46.92;;;24.42;;
75655;SDS011;64252;51.094;13.714;2024-03-02T05:27:22;48.50;;;27.25;;
75655;SDS011;64252;51.094;13.714;2024-03-02T05:29:47;43.85;;;25.58;;
75655;SDS011;64252;51.094;13.714;2024-03-02T05:32:13;41.42;;;22.73;;
75655;SDS011;64252;51.094;13.714;2024-03-02T05:34:38;45.97;;;23.38;;
75655;SDS011;64252;51.094;13.714;2024-03-02T05:37:04;48.25;;;24.08;;
75655;SDS011;64252;51.094;13.714;2024-03-02T05:39:29;47.67;;;25.20;;
75655;SDS011;64252;51.094;13.714;2024-03-02T05:41:55;48.05;;;25.75;;
75655;SDS011;64252;51.094;13.714;2024-03-02T05:44:20;49.85;;;25.83;;
75655;SDS011;64252;51.094;13.714;2024-03-02T05:46:47;48.65;;;26.08;;
75655;SDS011;64252;51.094;13.714;2024-03-02T05:49:13;48.28;;;25.35;;
75655;SDS011;64252;51.094;13.714;2024-03-02T05:51:38;46.75;;;24.33;;
75655;SDS011;64252;51.094;13.714;2024-03-02T05:54:04;49.10;;;26.23;;
75655;SDS011;64252;51.094;13.714;2024-03-02T05:56:30;41.63;;;21.70;;
75655;SDS011;64252;51.094;13.714;2024-03-02T05:58:55;45.97;;;25.60;;
75655;SDS011;64252;51.094;13.714;2024-03-02T06:01:39;47.45;;;24.13;;
75655;SDS011;64252;51.094;13.714;2024-03-02T06:04:05;44.67;;;25.00;;
75655;SDS011;64252;51.094;13.714;2024-03-02T06:06:33;52.90;;;26.85;;
75655;SDS011;64252;51.094;13.714;2024-03-02T06:09:02;47.58;;;25.60;;
75655;SDS011;64252;51.094;13.714;2024-03-02T06:11:36;50.95;;;25.35;;
75655;SDS011;64252;51.094;13.714;2024-03-02T06:14:03;50.47;;;25.92;;
75655;SDS011;64252;51.094;13.714;2024-03-02T06:16:31;49.25;;;26.48;;
75655;SDS011;64252;51.094;13.714;2024-03-02T06:18:57;52.00;;;26.05;;
75655;SDS011;64252;51.094;13.714;2024-03-02T06:21:26;38.35;;;20.63;;
75655;SDS011;64252;51.094;13.714;2024-03-02T06:23:52;48.78;;;25.33;;
75655;SDS011;64252;51.094;13.714;2024-03-02T06:26:18;53.35;;;27.48;;
75655;SDS011;64252;51.094;13.714;2024-03-02T06:28:44;47.88;;;24.63;;
75655;SDS011;64252;51.094;13.714;2024-03-02T06:31:10;48.40;;;23.42;;
75655;SDS011;64252;51.094;13.714;2024-03-02T06:33:36;51.72;;;26.15;;
75655;SDS011;64252;51.094;13.714;2024-03-02T06:36:02;50.33;;;25.50;;
75655;SDS011;64252;51.094;13.714;2024-03-02T06:38:28;43.95;;;22.20;;
75655;SDS011;64252;51.094;13.714;2024-03-02T06:40:53;42.50;;;22.60;;
75655;SDS011;64252;51.094;13.714;2024-03-02T06:43:20;45.88;;;23.63;;
75655;SDS011;64252;51.094;13.714;2024-03-02T06:45:52;50.78;;;26.60;;
75655;SDS011;64252;51.094;13.714;2024-03-02T06:48:18;46.53;;;24.58;;
75655;SDS011;64252;51.094;13.714;2024-03-02T06:50:48;44.75;;;21.65;;
75655;SDS011;64252;51.094;13.714;2024-03-02T06:55:45;45.17;;;23.05;;
75655;SDS011;64252;51.094;13.714;2024-03-02T06:58:14;49.22;;;24.70;;
75655;SDS011;64252;51.094;13.714;2024-03-02T07:00:42;47.38;;;22.73;;
75655;SDS011;64252;51.094;13.714;2024-03-02T07:03:09;56.20;;;25.63;;
75655;SDS011;64252;51.094;13.714;2024-03-02T07:05:34;49.25;;;24.75;;
75655;SDS011;64252;51.094;13.714;2024-03-02T07:08:01;44.45;;;20.38;;
75655;SDS011;64252;51.094;13.714;2024-03-02T07:10:28;49.72;;;25.90;;
75655;SDS011;64252;51.094;13.714;2024-03-02T07:12:53;43.85;;;23.30;;
75655;SDS011;64252;51.094;13.714;2024-03-02T07:15:19;38.58;;;19.38;;
75655;SDS011;64252;51.094;13.714;2024-03-02T07:17:53;46.10;;;22.77;;
75655;SDS011;64252;51.094;13.714;2024-03-02T07:20:19;43.30;;;23.48;;
75655;SDS011;64252;51.094;13.714;2024-03-02T07:22:45;39.72;;;21.13;;
75655;SDS011;64252;51.094;13.714;2024-03-02T07:25:10;40.83;;;21.95;;
75655;SDS011;64252;51.094;13.714;2024-03-02T07:27:38;41.90;;;20.73;;
75655;SDS011;64252;51.094;13.714;2024-03-02T07:30:04;41.35;;;20.38;;
75655;SDS011;64252;51.094;13.714;2024-03-02T07:32:30;40.97;;;19.88;;
75655;SDS011;64252;51.094;13.714;2024-03-02T07:34:55;49.28;;;24.27;;
75655;SDS011;64252;51.094;13.714;2024-03-02T07:37:21;53.63;;;23.25;;
75655;SDS011;64252;51.094;13.714;2024-03-02T07:39:47;43.28;;;21.08;;
75655;SDS011;64252;51.094;13.714;2024-03-02T07:42:13;46.63;;;21.38;;
75655;SDS011;64252;51.094;13.714;2024-03-02T07:44:39;45.22;;;20.23;;
75655;SDS011;64252;51.094;13.714;2024-03-02T07:47:04;54.72;;;26.35;;
75655;SDS011;64252;51.094;13.714;2024-03-02T07:49:30;48.20;;;23.88;;
75655;SDS011;64252;51.094;13.714;2024-03-02T07:51:55;39.78;;;18.90;;
75655;SDS011;64252;51.094;13.714;2024-03-02T07:54:21;42.22;;;21.42;;
75655;SDS011;64252;51.094;13.714;2024-03-02T07:56:46;42.80;;;22.73;;
75655;SDS011;64252;51.094;13.714;2024-03-02T07:59:12;43.55;;;21.38;;
75655;SDS011;64252;51.094;13.714;2024-03-02T08:01:38;47.00;;;22.75;;
75655;SDS011;64252;51.094;13.714;2024-03-02T08:04:04;42.72;;;21.17;;
75655;SDS011;64252;51.094;13.714;2024-03-02T08:06:30;46.88;;;21.98;;
75655;SDS011;64252;51.094;13.714;2024-03-02T08:08:56;53.45;;;25.58;;
75655;SDS011;64252;51.094;13.714;2024-03-02T08:14:55;50.33;;;24.50;;
75655;SDS011;64252;51.094;13.714;2024-03-02T08:20:24;52.15;;;25.73;;
75655;SDS011;64252;51.094;13.714;2024-03-02T08:22:50;55.22;;;25.50;;
75655;SDS011;64252;51.094;13.714;2024-03-02T08:25:16;41.17;;;21.90;;
75655;SDS011;64252;51.094;13.714;2024-03-02T08:27:44;45.20;;;23.25;;
75655;SDS011;64252;51.094;13.714;2024-03-02T08:30:10;51.55;;;25.27;;
75655;SDS011;64252;51.094;13.714;2024-03-02T08:32:38;48.97;;;23.33;;
75655;SDS011;64252;51.094;13.714;2024-03-02T08:35:09;53.65;;;25.60;;
75655;SDS011;64252;51.094;13.714;2024-03-02T08:37:35;53.65;;;23.17;;
75655;SDS011;64252;51.094;13.714;2024-03-02T08:40:04;57.75;;;25.40;;
75655;SDS011;64252;51.094;13.714;2024-03-02T08:42:32;49.58;;;22.58;;
75655;SDS011;64252;51.094;13.714;2024-03-02T08:44:58;45.47;;;22.35;;
75655;SDS011;64252;51.094;13.714;2024-03-02T08:47:26;46.53;;;22.02;;
75655;SDS011;64252;51.094;13.714;2024-03-02T08:49:54;51.72;;;21.83;;
75655;SDS011;64252;51.094;13.714;2024-03-02T08:52:23;51.53;;;24.23;;
75655;SDS011;64252;51.094;13.714;2024-03-02T08:54:54;38.72;;;19.25;;
75655;SDS011;64252;51.094;13.714;2024-03-02T08:57:21;46.63;;;21.15;;
75655;SDS011;64252;51.094;13.714;2024-03-02T08:59:52;48.15;;;21.38;;
75655;SDS011;64252;51.094;13.714;2024-03-02T09:05:15;40.65;;;18.30;;
75655;SDS011;64252;51.094;13.714;2024-03-02T09:39:36;27.95;;;12.90;;
75655;SDS011;64252;51.094;13.714;2024-03-02T10:18:48;34.63;;;15.82;;
75655;SDS011;64252;51.094;13.714;2024-03-02T10:25:37;33.85;;;15.38;;
75655;SDS011;64252;51.094;13.714;2024-03-02T10:39:34;30.00;;;14.07;;
75655;SDS011;64252;51.094;13.714;2024-03-02T10:42:05;29.63;;;14.60;;
75655;SDS011;64252;51.094;13.714;2024-03-02T10:44:32;26.48;;;13.25;;
75655;SDS011;64252;51.094;13.714;2024-03-02T10:47:02;28.73;;;13.48;;
75655;SDS011;64252;51.094;13.714;2024-03-02T10:49:30;25.50;;;13.88;;
75655;SDS011;64252;51.094;13.714;2024-03-02T10:51:57;26.10;;;12.88;;
75655;SDS011;64252;51.094;13.714;2024-03-02T10:54:23;25.45;;;12.57;;
75655;SDS011;64252;51.094;13.714;2024-03-02T10:56:52;26.92;;;12.88;;
75655;SDS011;64252;51.094;13.714;2024-03-02T11:01:53;25.98;;;12.88;;
75655;SDS011;64252;51.094;13.714;2024-03-02T11:04:24;29.15;;;13.57;;
75655;SDS011;64252;51.094;13.714;2024-03-02T11:06:51;24.15;;;12.25;;
75655;SDS011;64252;51.094;13.714;2024-03-02T11:09:24;20.15;;;10.65;;
75655;SDS011;64252;51.094;13.714;2024-03-02T11:12:35;18.80;;;11.02;;
75655;SDS011;64252;51.094;13.714;2024-03-02T11:14:44;22.80;;;10.73;;
75655;SDS011;64252;51.094;13.714;2024-03-02T11:17:11;20.52;;;10.52;;
75655;SDS011;64252;51.094;13.714;2024-03-02T11:19:40;22.73;;;12.02;;
75655;SDS011;64252;51.094;13.714;2024-03-02T11:22:09;18.05;;;9.43;;
75655;SDS011;64252;51.094;13.714;2024-03-02T11:24:36;22.40;;;10.95;;
75655;SDS011;64252;51.094;13.714;2024-03-02T11:27:02;18.48;;;9.45;;
75655;SDS011;64252;51.094;13.714;2024-03-02T11:32:02;19.65;;;10.07;;
75655;SDS011;64252;51.094;13.714;2024-03-02T11:34:37;21.08;;;10.77;;
75655;SDS011;64252;51.094;13.714;2024-03-02T11:37:04;18.60;;;9.25;;
75655;SDS011;64252;51.094;13.714;2024-03-02T11:39:30;17.20;;;9.27;;
75655;SDS011;64252;51.094;13.714;2024-03-02T11:41:56;17.13;;;8.77;;
75655;SDS011;64252;51.094;13.714;2024-03-02T11:44:25;14.43;;;7.35;;
75655;SDS011;64252;51.094;13.714;2024-03-02T11:46:52;16.40;;;7.40;;
75655;SDS011;64252;51.094;13.714;2024-03-02T11:49:40;13.38;;;6.70;;
75655;SDS011;64252;51.094;13.714;2024-03-02T11:52:09;13.13;;;7.25;;
75655;SDS011;64252;51.094;13.714;2024-03-02T11:54:39;11.38;;;6.95;;
75655;SDS011;64252;51.094;13.714;2024-03-02T11:57:20;12.30;;;7.05;;
75655;SDS011;64252;51.094;13.714;2024-03-02T11:59:47;13.25;;;6.88;;
75655;SDS011;64252;51.094;13.714;2024-03-02T12:02:15;13.77;;;6.57;;
75655;SDS011;64252;51.094;13.714;2024-03-02T12:04:44;11.07;;;5.60;;
75655;SDS011;64252;51.094;13.714;2024-03-02T12:07:22;9.57;;;5.22;;
75655;SDS011;64252;51.094;13.714;2024-03-02T12:09:59;11.20;;;5.95;;
75655;SDS011;64252;51.094;13.714;2024-03-02T12:12:26;10.30;;;6.13;;
75655;SDS011;64252;51.094;13.714;2024-03-02T12:14:52;12.32;;;5.63;;
75655;SDS011;64252;51.094;13.714;2024-03-02T12:17:20;8.32;;;5.32;;
75655;SDS011;64252;51.094;13.714;2024-03-02T12:19:46;16.45;;;6.55;;
75655;SDS011;64252;51.094;13.714;2024-03-02T12:22:12;12.05;;;6.05;;
75655;SDS011;64252;51.094;13.714;2024-03-02T12:24:38;11.13;;;5.40;;
75655;SDS011;64252;51.094;13.714;2024-03-02T12:27:04;11.98;;;6.13;;
75655;SDS011;64252;51.094;13.714;2024-03-02T12:29:32;13.40;;;6.80;;
75655;SDS011;64252;51.094;13.714;2024-03-02T12:32:00;11.90;;;6.47;;
75655;SDS011;64252;51.094;13.714;2024-03-02T12:34:27;17.08;;;8.20;;
75655;SDS011;64252;51.094;13.714;2024-03-02T12:36:53;19.95;;;9.73;;
75655;SDS011;64252;51.094;13.714;2024-03-02T12:39:18;21.55;;;9.68;;
75655;SDS011;64252;51.094;13.714;2024-03-02T12:41:45;21.80;;;9.65;;
75655;SDS011;64252;51.094;13.714;2024-03-02T12:44:11;25.05;;;9.77;;
75655;SDS011;64252;51.094;13.714;2024-03-02T12:46:37;21.50;;;9.90;;
75655;SDS011;64252;51.094;13.714;2024-03-02T12:49:10;19.80;;;9.55;;
75655;SDS011;64252;51.094;13.714;2024-03-02T12:51:37;25.73;;;10.95;;
75655;SDS011;64252;51.094;13.714;2024-03-02T12:54:08;23.80;;;11.15;;
75655;SDS011;64252;51.094;13.714;2024-03-02T12:56:37;20.67;;;9.20;;
75655;SDS011;64252;51.094;13.714;2024-03-02T12:59:04;23.70;;;10.43;;
75655;SDS011;64252;51.094;13.714;2024-03-02T13:01:30;18.17;;;9.55;;
75655;SDS011;64252;51.094;13.714;2024-03-02T13:03:57;18.00;;;9.00;;
75655;SDS011;64252;51.094;13.714;2024-03-02T13:06:24;17.92;;;9.27;;
75655;SDS011;64252;51.094;13.714;2024-03-02T13:08:54;20.83;;;10.02;;
75655;SDS011;64252;51.094;13.714;2024-03-02T13:11:20;18.08;;;9.18;;
75655;SDS011;64252;51.094;13.714;2024-03-02T13:13:47;20.73;;;9.32;;
75655;SDS011;64252;51.094;13.714;2024-03-02T13:16:13;19.45;;;10.07;;
75655;SDS011;64252;51.094;13.714;2024-03-02T13:18:40;20.60;;;9.85;;
75655;SDS011;64252;51.094;13.714;2024-03-02T13:21:06;19.70;;;9.13;;
75655;SDS011;64252;51.094;13.714;2024-03-02T13:23:35;17.27;;;9.57;;
75655;SDS011;64252;51.094;13.714;2024-03-02T13:26:01;20.45;;;10.18;;
75655;SDS011;64252;51.094;13.714;2024-03-02T13:28:26;20.95;;;10.10;;
75655;SDS011;64252;51.094;13.714;2024-03-02T13:30:52;21.95;;;10.63;;
75655;SDS011;64252;51.094;13.714;2024-03-02T13:33:18;24.38;;;10.23;;
75655;SDS011;64252;51.094;13.714;2024-03-02T13:35:51;20.90;;;9.93;;
75655;SDS011;64252;51.094;13.714;2024-03-02T13:38:17;18.40;;;9.88;;
75655;SDS011;64252;51.094;13.714;2024-03-02T13:40:44;21.05;;;10.35;;
75655;SDS011;64252;51.094;13.714;2024-03-02T13:43:10;20.63;;;9.98;;
75655;SDS011;64252;51.094;13.714;2024-03-02T13:45:37;19.13;;;9.02;;
75655;SDS011;64252;51.094;13.714;2024-03-02T13:48:03;21.98;;;10.57;;
75655;SDS011;64252;51.094;13.714;2024-03-02T13:50:29;23.02;;;10.68;;
75655;SDS011;64252;51.094;13.714;2024-03-02T13:52:55;18.92;;;9.30;;
75655;SDS011;64252;51.094;13.714;2024-03-02T13:55:21;19.73;;;9.25;;
75655;SDS011;64252;51.094;13.714;2024-03-02T13:57:47;16.70;;;8.95;;
75655;SDS011;64252;51.094;13.714;2024-03-02T14:00:14;17.25;;;8.95;;
75655;SDS011;64252;51.094;13.714;2024-03-02T14:02:41;19.77;;;9.73;;
75655;SDS011;64252;51.094;13.714;2024-03-02T14:05:08;17.60;;;8.73;;
75655;SDS011;64252;51.094;13.714;2024-03-02T14:07:40;19.25;;;8.55;;
75655;SDS011;64252;51.094;13.714;2024-03-02T14:10:06;18.58;;;8.38;;
75655;SDS011;64252;51.094;13.714;2024-03-02T14:12:32;19.35;;;9.73;;
75655;SDS011;64252;51.094;13.714;2024-03-02T14:14:57;22.70;;;9.52;;
75655;SDS011;64252;51.094;13.714;2024-03-02T14:17:24;16.60;;;8.85;;
75655;SDS011;64252;51.094;13.714;2024-03-02T14:19:50;15.57;;;8.77;;
75655;SDS011;64252;51.094;13.714;2024-03-02T14:22:17;19.92;;;9.65;;
75655;SDS011;64252;51.094;13.714;2024-03-02T14:24:43;19.02;;;8.45;;
75655;SDS011;64252;51.094;13.714;2024-03-02T14:27:09;17.23;;;9.05;;
75655;SDS011;64252;51.094;13.714;2024-03-02T14:29:34;23.70;;;10.30;;
75655;SDS011;64252;51.094;13.714;2024-03-02T14:32:03;20.02;;;9.40;;
75655;SDS011;64252;51.094;13.714;2024-03-02T14:34:33;19.63;;;9.18;;
75655;SDS011;64252;51.094;13.714;2024-03-02T14:36:58;17.42;;;9.77;;
75655;SDS011;64252;51.094;13.714;2024-03-02T14:39:25;20.33;;;10.82;;
75655;SDS011;64252;51.094;13.714;2024-03-02T14:41:51;22.75;;;10.45;;
75655;SDS011;64252;51.094;13.714;2024-03-02T14:44:16;17.67;;;9.73;;
75655;SDS011;64252;51.094;13.714;2024-03-02T14:46:49;22.42;;;11.75;;
75655;SDS011;64252;51.094;13.714;2024-03-02T14:49:15;22.35;;;11.18;;
75655;SDS011;64252;51.094;13.714;2024-03-02T14:51:41;19.88;;;11.00;;
75655;SDS011;64252;51.094;13.714;2024-03-02T14:54:09;22.05;;;10.60;;
75655;SDS011;64252;51.094;13.714;2024-03-02T14:56:35;22.20;;;11.07;;
75655;SDS011;64252;51.094;13.714;2024-03-02T14:59:00;21.02;;;10.68;;
75655;SDS011;64252;51.094;13.714;2024-03-02T15:01:26;19.27;;;10.52;;
75655;SDS011;64252;51.094;13.714;2024-03-02T15:03:52;19.00;;;9.80;;
75655;SDS011;64252;51.094;13.714;2024-03-02T15:06:18;24.98;;;11.45;;
75655;SDS011;64252;51.094;13.714;2024-03-02T15:08:45;26.05;;;11.32;;
75655;SDS011;64252;51.094;13.714;2024-03-02T15:11:12;22.17;;;11.23;;
75655;SDS011;64252;51.094;13.714;2024-03-02T15:13:37;21.65;;;12.07;;
75655;SDS011;64252;51.094;13.714;2024-03-02T15:16:03;20.48;;;11.52;;
75655;SDS011;64252;51.094;13.714;2024-03-02T15:18:29;20.33;;;10.65;;
75655;SDS011;64252;51.094;13.714;2024-03-02T15:20:54;21.73;;;10.48;;
75655;SDS011;64252;51.094;13.714;2024-03-02T15:23:20;18.98;;;11.25;;
75655;SDS011;64252;51.094;13.714;2024-03-02T15:25:45;17.20;;;9.35;;
75655;SDS011;64252;51.094;13.714;2024-03-02T15:28:11;19.13;;;11.07;;
75655;SDS011;64252;51.094;13.714;2024-03-02T15:30:37;19.35;;;10.20;;
75655;SDS011;64252;51.094;13.714;2024-03-02T15:33:02;20.35;;;10.55;;
75655;SDS011;64252;51.094;13.714;2024-03-02T15:35:28;20.63;;;10.02;;
75655;SDS011;64252;51.094;13.714;2024-03-02T15:37:54;19.70;;;9.52;;
75655;SDS011;64252;51.094;13.714;2024-03-02T15:40:19;18.70;;;9.95;;
75655;SDS011;64252;51.094;13.714;2024-03-02T15:42:45;18.60;;;9.52;;
75655;SDS011;64252;51.094;13.714;2024-03-02T15:45:11;20.27;;;9.95;;
75655;SDS011;64252;51.094;13.714;2024-03-02T15:47:36;20.70;;;9.27;;
75655;SDS011;64252;51.094;13.714;2024-03-02T15:50:02;21.98;;;10.45;;
75655;SDS011;64252;51.094;13.714;2024-03-02T15:52:29;24.83;;;10.57;;